Glencoe, United Kingdom
Current Conditions -  °F | °C
As of 8:50 AM on Saturday 01 Nov 2014 (Local Time) from EGPF Reporting Station
Broken Clouds Broken Clouds  
Wind Chill: 50°   Ceiling: 1800
Heat Index: 50°   Visibility: 6mi
Dew Point: 46°   Wind: 10mph
Humidity: 87%   Direction: 220°SW
Pressure: 29.71"   Gusts: NA
Location:  56.68°N, 5.11°W
Report Text: EGPF 010850Z AUTO 22009KT 9999 BKN018 10/08 Q1006
Loading
Personal Weather Stations






























Interactive Weather Map
Tropical Storm Tracking
New forecast layout! Learn more

10-Day Weather Forecast

Advertisements
Track Severe Weather on mobile